sensor_id;sensor_type;location;lat;lon;timestamp;P1;durP1;ratioP1;P2;durP2;ratioP2
29958;SDS011;16815;51.100;6.516;2024-03-07T00:01:33;43.87;;;28.87;;
29958;SDS011;16815;51.100;6.516;2024-03-07T00:03:59;42.87;;;28.07;;
29958;SDS011;16815;51.100;6.516;2024-03-07T00:06:25;42.33;;;28.43;;
29958;SDS011;16815;51.100;6.516;2024-03-07T00:08:51;41.57;;;28.33;;
29958;SDS011;16815;51.100;6.516;2024-03-07T00:11:17;44.40;;;28.03;;
29958;SDS011;16815;51.100;6.516;2024-03-07T00:13:44;44.77;;;29.50;;
29958;SDS011;16815;51.100;6.516;2024-03-07T00:16:10;45.10;;;29.13;;
29958;SDS011;16815;51.100;6.516;2024-03-07T00:18:35;42.43;;;28.47;;
29958;SDS011;16815;51.100;6.516;2024-03-07T00:21:02;48.00;;;32.60;;
29958;SDS011;16815;51.100;6.516;2024-03-07T00:23:28;46.20;;;31.10;;
29958;SDS011;16815;51.100;6.516;2024-03-07T00:25:55;43.07;;;30.10;;
29958;SDS011;16815;51.100;6.516;2024-03-07T00:28:21;45.67;;;30.97;;
29958;SDS011;16815;51.100;6.516;2024-03-07T00:30:47;46.43;;;30.00;;
29958;SDS011;16815;51.100;6.516;2024-03-07T00:33:13;44.53;;;29.30;;
29958;SDS011;16815;51.100;6.516;2024-03-07T00:35:40;45.43;;;31.10;;
29958;SDS011;16815;51.100;6.516;2024-03-07T00:38:06;47.57;;;30.90;;
29958;SDS011;16815;51.100;6.516;2024-03-07T00:40:32;42.67;;;28.10;;
29958;SDS011;16815;51.100;6.516;2024-03-07T00:42:58;43.10;;;30.03;;
29958;SDS011;16815;51.100;6.516;2024-03-07T00:45:24;47.87;;;29.90;;
29958;SDS011;16815;51.100;6.516;2024-03-07T00:47:50;43.53;;;28.27;;
29958;SDS011;16815;51.100;6.516;2024-03-07T00:50:17;43.20;;;28.87;;
29958;SDS011;16815;51.100;6.516;2024-03-07T00:52:43;43.57;;;29.40;;
29958;SDS011;16815;51.100;6.516;2024-03-07T00:55:09;39.87;;;27.10;;
29958;SDS011;16815;51.100;6.516;2024-03-07T00:57:36;40.87;;;29.10;;
29958;SDS011;16815;51.100;6.516;2024-03-07T01:00:02;45.67;;;29.00;;
29958;SDS011;16815;51.100;6.516;2024-03-07T01:02:29;42.87;;;28.43;;
29958;SDS011;16815;51.100;6.516;2024-03-07T01:04:55;38.87;;;27.33;;
29958;SDS011;16815;51.100;6.516;2024-03-07T01:07:21;39.90;;;27.00;;
29958;SDS011;16815;51.100;6.516;2024-03-07T01:09:49;40.83;;;28.40;;
29958;SDS011;16815;51.100;6.516;2024-03-07T01:12:15;45.10;;;30.17;;
29958;SDS011;16815;51.100;6.516;2024-03-07T01:14:42;44.60;;;28.83;;
29958;SDS011;16815;51.100;6.516;2024-03-07T01:17:07;39.90;;;28.43;;
29958;SDS011;16815;51.100;6.516;2024-03-07T01:19:33;38.07;;;26.80;;
29958;SDS011;16815;51.100;6.516;2024-03-07T01:21:59;43.73;;;29.50;;
29958;SDS011;16815;51.100;6.516;2024-03-07T01:24:25;45.50;;;30.03;;
29958;SDS011;16815;51.100;6.516;2024-03-07T01:26:51;43.00;;;28.43;;
29958;SDS011;16815;51.100;6.516;2024-03-07T01:29:18;41.33;;;26.83;;
29958;SDS011;16815;51.100;6.516;2024-03-07T01:31:43;37.63;;;26.87;;
29958;SDS011;16815;51.100;6.516;2024-03-07T01:34:09;38.73;;;26.83;;
29958;SDS011;16815;51.100;6.516;2024-03-07T01:36:35;43.20;;;26.33;;
29958;SDS011;16815;51.100;6.516;2024-03-07T01:39:01;35.60;;;23.70;;
29958;SDS011;16815;51.100;6.516;2024-03-07T01:41:28;34.60;;;23.97;;
29958;SDS011;16815;51.100;6.516;2024-03-07T01:43:54;35.33;;;25.10;;
29958;SDS011;16815;51.100;6.516;2024-03-07T01:46:20;38.87;;;25.10;;
29958;SDS011;16815;51.100;6.516;2024-03-07T01:48:46;39.07;;;24.43;;
29958;SDS011;16815;51.100;6.516;2024-03-07T01:51:13;34.73;;;23.37;;
29958;SDS011;16815;51.100;6.516;2024-03-07T01:53:39;40.93;;;25.33;;
29958;SDS011;16815;51.100;6.516;2024-03-07T01:56:05;42.40;;;24.23;;
29958;SDS011;16815;51.100;6.516;2024-03-07T01:58:31;38.70;;;24.87;;
29958;SDS011;16815;51.100;6.516;2024-03-07T02:00:58;38.90;;;24.23;;
29958;SDS011;16815;51.100;6.516;2024-03-07T02:03:24;37.47;;;24.43;;
29958;SDS011;16815;51.100;6.516;2024-03-07T02:05:50;39.07;;;24.87;;
29958;SDS011;16815;51.100;6.516;2024-03-07T02:08:16;42.83;;;26.97;;
29958;SDS011;16815;51.100;6.516;2024-03-07T02:10:42;40.40;;;26.07;;
29958;SDS011;16815;51.100;6.516;2024-03-07T02:13:08;43.50;;;28.17;;
29958;SDS011;16815;51.100;6.516;2024-03-07T02:15:34;43.50;;;28.23;;
29958;SDS011;16815;51.100;6.516;2024-03-07T02:18:00;44.77;;;27.63;;
29958;SDS011;16815;51.100;6.516;2024-03-07T02:20:26;46.13;;;29.17;;
29958;SDS011;16815;51.100;6.516;2024-03-07T02:22:53;42.20;;;27.60;;
29958;SDS011;16815;51.100;6.516;2024-03-07T02:25:20;40.03;;;26.43;;
29958;SDS011;16815;51.100;6.516;2024-03-07T02:27:46;47.87;;;27.97;;
29958;SDS011;16815;51.100;6.516;2024-03-07T02:30:12;46.80;;;27.50;;
29958;SDS011;16815;51.100;6.516;2024-03-07T02:32:39;47.33;;;28.73;;
29958;SDS011;16815;51.100;6.516;2024-03-07T02:35:05;46.30;;;27.57;;
29958;SDS011;16815;51.100;6.516;2024-03-07T02:37:31;41.07;;;27.23;;
29958;SDS011;16815;51.100;6.516;2024-03-07T02:39:58;41.30;;;26.80;;
29958;SDS011;16815;51.100;6.516;2024-03-07T02:42:24;46.93;;;28.87;;
29958;SDS011;16815;51.100;6.516;2024-03-07T02:44:50;42.27;;;27.73;;
29958;SDS011;16815;51.100;6.516;2024-03-07T02:47:17;45.50;;;27.70;;
29958;SDS011;16815;51.100;6.516;2024-03-07T02:49:43;47.50;;;29.00;;
29958;SDS011;16815;51.100;6.516;2024-03-07T02:52:09;47.13;;;29.43;;
29958;SDS011;16815;51.100;6.516;2024-03-07T02:54:35;44.13;;;27.50;;
29958;SDS011;16815;51.100;6.516;2024-03-07T02:57:01;43.53;;;28.10;;
29958;SDS011;16815;51.100;6.516;2024-03-07T02:59:27;47.00;;;29.07;;
29958;SDS011;16815;51.100;6.516;2024-03-07T03:01:53;48.37;;;29.70;;
29958;SDS011;16815;51.100;6.516;2024-03-07T03:04:20;45.07;;;28.83;;
29958;SDS011;16815;51.100;6.516;2024-03-07T03:06:46;42.80;;;28.37;;
29958;SDS011;16815;51.100;6.516;2024-03-07T03:09:12;42.83;;;27.67;;
29958;SDS011;16815;51.100;6.516;2024-03-07T03:11:42;40.10;;;26.70;;
29958;SDS011;16815;51.100;6.516;2024-03-07T03:14:08;32.30;;;23.30;;
29958;SDS011;16815;51.100;6.516;2024-03-07T03:16:35;36.60;;;24.57;;
29958;SDS011;16815;51.100;6.516;2024-03-07T03:19:01;41.20;;;21.10;;
29958;SDS011;16815;51.100;6.516;2024-03-07T03:21:27;38.97;;;18.97;;
29958;SDS011;16815;51.100;6.516;2024-03-07T03:23:53;55.03;;;20.90;;
29958;SDS011;16815;51.100;6.516;2024-03-07T03:26:20;35.20;;;22.13;;
29958;SDS011;16815;51.100;6.516;2024-03-07T03:28:46;67.37;;;23.57;;
29958;SDS011;16815;51.100;6.516;2024-03-07T03:31:12;34.63;;;21.93;;
29958;SDS011;16815;51.100;6.516;2024-03-07T03:33:39;36.00;;;21.37;;
29958;SDS011;16815;51.100;6.516;2024-03-07T03:36:06;41.63;;;21.97;;
29958;SDS011;16815;51.100;6.516;2024-03-07T03:38:32;35.90;;;21.27;;
29958;SDS011;16815;51.100;6.516;2024-03-07T03:40:58;33.97;;;21.27;;
29958;SDS011;16815;51.100;6.516;2024-03-07T03:43:24;54.13;;;20.43;;
29958;SDS011;16815;51.100;6.516;2024-03-07T03:45:50;60.07;;;20.47;;
29958;SDS011;16815;51.100;6.516;2024-03-07T03:48:16;27.87;;;20.10;;
29958;SDS011;16815;51.100;6.516;2024-03-07T03:50:42;30.67;;;19.30;;
29958;SDS011;16815;51.100;6.516;2024-03-07T03:53:08;68.53;;;18.93;;
29958;SDS011;16815;51.100;6.516;2024-03-07T03:55:34;35.57;;;19.13;;
29958;SDS011;16815;51.100;6.516;2024-03-07T03:58:00;80.97;;;22.40;;
29958;SDS011;16815;51.100;6.516;2024-03-07T04:00:26;87.07;;;23.37;;
29958;SDS011;16815;51.100;6.516;2024-03-07T04:02:52;42.27;;;20.63;;
29958;SDS011;16815;51.100;6.516;2024-03-07T04:05:19;30.90;;;21.20;;
29958;SDS011;16815;51.100;6.516;2024-03-07T04:07:46;28.27;;;19.50;;
29958;SDS011;16815;51.100;6.516;2024-03-07T04:10:12;29.33;;;20.67;;
29958;SDS011;16815;51.100;6.516;2024-03-07T04:12:39;31.87;;;21.50;;
29958;SDS011;16815;51.100;6.516;2024-03-07T04:15:06;27.73;;;19.90;;
29958;SDS011;16815;51.100;6.516;2024-03-07T04:17:33;27.80;;;19.73;;
29958;SDS011;16815;51.100;6.516;2024-03-07T04:19:59;28.00;;;19.57;;
29958;SDS011;16815;51.100;6.516;2024-03-07T04:22:25;28.50;;;20.03;;
29958;SDS011;16815;51.100;6.516;2024-03-07T04:24:52;30.47;;;21.90;;
29958;SDS011;16815;51.100;6.516;2024-03-07T04:27:21;33.73;;;23.00;;
29958;SDS011;16815;51.100;6.516;2024-03-07T04:29:47;32.90;;;22.17;;
29958;SDS011;16815;51.100;6.516;2024-03-07T04:32:14;29.50;;;20.77;;
29958;SDS011;16815;51.100;6.516;2024-03-07T04:34:40;33.20;;;22.77;;
29958;SDS011;16815;51.100;6.516;2024-03-07T04:37:06;31.80;;;22.03;;
29958;SDS011;16815;51.100;6.516;2024-03-07T04:39:32;30.47;;;21.60;;
29958;SDS011;16815;51.100;6.516;2024-03-07T04:42:01;47.33;;;22.27;;
29958;SDS011;16815;51.100;6.516;2024-03-07T04:44:28;33.87;;;21.90;;
29958;SDS011;16815;51.100;6.516;2024-03-07T04:46:54;41.37;;;23.43;;
29958;SDS011;16815;51.100;6.516;2024-03-07T04:49:23;35.10;;;22.13;;
29958;SDS011;16815;51.100;6.516;2024-03-07T04:51:53;35.30;;;23.23;;
29958;SDS011;16815;51.100;6.516;2024-03-07T04:54:20;38.37;;;23.83;;
29958;SDS011;16815;51.100;6.516;2024-03-07T04:56:46;39.33;;;23.90;;
29958;SDS011;16815;51.100;6.516;2024-03-07T04:59:12;151.23;;;29.13;;
29958;SDS011;16815;51.100;6.516;2024-03-07T05:01:39;365.90;;;37.00;;
29958;SDS011;16815;51.100;6.516;2024-03-07T05:04:08;224.20;;;31.40;;
29958;SDS011;16815;51.100;6.516;2024-03-07T05:06:34;114.97;;;28.57;;
29958;SDS011;16815;51.100;6.516;2024-03-07T05:09:01;99.13;;;27.07;;
29958;SDS011;16815;51.100;6.516;2024-03-07T05:11:28;72.30;;;26.40;;
29958;SDS011;16815;51.100;6.516;2024-03-07T05:13:54;91.13;;;28.90;;
29958;SDS011;16815;51.100;6.516;2024-03-07T05:16:20;95.07;;;28.00;;
29958;SDS011;16815;51.100;6.516;2024-03-07T05:18:46;131.53;;;28.67;;
29958;SDS011;16815;51.100;6.516;2024-03-07T05:21:12;68.67;;;28.47;;
29958;SDS011;16815;51.100;6.516;2024-03-07T05:23:57;47.30;;;27.67;;
29958;SDS011;16815;51.100;6.516;2024-03-07T05:26:23;43.77;;;29.03;;
29958;SDS011;16815;51.100;6.516;2024-03-07T05:28:49;47.30;;;28.13;;
29958;SDS011;16815;51.100;6.516;2024-03-07T05:31:16;48.13;;;30.60;;
29958;SDS011;16815;51.100;6.516;2024-03-07T05:33:43;47.30;;;30.63;;
29958;SDS011;16815;51.100;6.516;2024-03-07T05:36:09;48.30;;;30.57;;
29958;SDS011;16815;51.100;6.516;2024-03-07T05:38:41;50.20;;;30.27;;
29958;SDS011;16815;51.100;6.516;2024-03-07T05:41:10;46.20;;;29.90;;
29958;SDS011;16815;51.100;6.516;2024-03-07T05:43:37;47.40;;;29.63;;
29958;SDS011;16815;51.100;6.516;2024-03-07T05:46:03;45.10;;;29.23;;
29958;SDS011;16815;51.100;6.516;2024-03-07T05:48:31;41.40;;;26.87;;
29958;SDS011;16815;51.100;6.516;2024-03-07T05:50:57;46.97;;;29.90;;
29958;SDS011;16815;51.100;6.516;2024-03-07T05:53:24;46.37;;;29.73;;
29958;SDS011;16815;51.100;6.516;2024-03-07T05:55:50;78.30;;;31.63;;
29958;SDS011;16815;51.100;6.516;2024-03-07T05:58:16;85.97;;;31.87;;
29958;SDS011;16815;51.100;6.516;2024-03-07T06:00:47;121.17;;;33.93;;
29958;SDS011;16815;51.100;6.516;2024-03-07T06:03:16;116.63;;;32.27;;
29958;SDS011;16815;51.100;6.516;2024-03-07T06:05:44;289.90;;;37.70;;
29958;SDS011;16815;51.100;6.516;2024-03-07T06:08:13;263.03;;;33.83;;
29958;SDS011;16815;51.100;6.516;2024-03-07T06:10:41;302.43;;;34.37;;
29958;SDS011;16815;51.100;6.516;2024-03-07T06:13:07;270.37;;;37.67;;
29958;SDS011;16815;51.100;6.516;2024-03-07T06:15:33;213.57;;;32.50;;
29958;SDS011;16815;51.100;6.516;2024-03-07T06:17:59;109.67;;;27.70;;
29958;SDS011;16815;51.100;6.516;2024-03-07T06:20:25;165.27;;;31.50;;
29958;SDS011;16815;51.100;6.516;2024-03-07T06:22:51;110.97;;;26.53;;
29958;SDS011;16815;51.100;6.516;2024-03-07T06:25:17;193.33;;;29.67;;
29958;SDS011;16815;51.100;6.516;2024-03-07T06:27:46;115.30;;;27.57;;
29958;SDS011;16815;51.100;6.516;2024-03-07T06:30:14;121.57;;;27.40;;
29958;SDS011;16815;51.100;6.516;2024-03-07T06:32:44;70.53;;;24.37;;
29958;SDS011;16815;51.100;6.516;2024-03-07T06:35:10;81.03;;;26.20;;
29958;SDS011;16815;51.100;6.516;2024-03-07T06:37:36;144.53;;;26.00;;
29958;SDS011;16815;51.100;6.516;2024-03-07T06:40:02;113.40;;;24.40;;
29958;SDS011;16815;51.100;6.516;2024-03-07T06:42:34;146.87;;;26.17;;
29958;SDS011;16815;51.100;6.516;2024-03-07T06:45:02;109.07;;;25.03;;
29958;SDS011;16815;51.100;6.516;2024-03-07T06:47:28;107.50;;;25.10;;
29958;SDS011;16815;51.100;6.516;2024-03-07T06:49:54;177.80;;;25.67;;
29958;SDS011;16815;51.100;6.516;2024-03-07T06:52:21;120.80;;;24.57;;
29958;SDS011;16815;51.100;6.516;2024-03-07T06:54:47;116.33;;;25.47;;
29958;SDS011;16815;51.100;6.516;2024-03-07T06:57:13;110.60;;;23.50;;
29958;SDS011;16815;51.100;6.516;2024-03-07T06:59:39;117.03;;;23.80;;
29958;SDS011;16815;51.100;6.516;2024-03-07T07:02:05;97.73;;;23.07;;
29958;SDS011;16815;51.100;6.516;2024-03-07T07:04:33;94.80;;;24.50;;
29958;SDS011;16815;51.100;6.516;2024-03-07T07:07:09;104.13;;;23.83;;
29958;SDS011;16815;51.100;6.516;2024-03-07T07:09:37;96.10;;;24.30;;
29958;SDS011;16815;51.100;6.516;2024-03-07T07:12:04;99.27;;;25.90;;
29958;SDS011;16815;51.100;6.516;2024-03-07T07:14:31;125.80;;;25.20;;
29958;SDS011;16815;51.100;6.516;2024-03-07T07:16:57;79.30;;;23.73;;
29958;SDS011;16815;51.100;6.516;2024-03-07T07:19:24;135.03;;;25.13;;
29958;SDS011;16815;51.100;6.516;2024-03-07T07:21:50;106.33;;;24.80;;
29958;SDS011;16815;51.100;6.516;2024-03-07T07:24:22;76.13;;;22.13;;
29958;SDS011;16815;51.100;6.516;2024-03-07T07:26:49;75.10;;;24.10;;
29958;SDS011;16815;51.100;6.516;2024-03-07T07:29:15;58.03;;;22.27;;
29958;SDS011;16815;51.100;6.516;2024-03-07T07:31:42;54.43;;;22.37;;
29958;SDS011;16815;51.100;6.516;2024-03-07T07:34:09;60.57;;;21.73;;
29958;SDS011;16815;51.100;6.516;2024-03-07T07:36:36;79.80;;;21.50;;
29958;SDS011;16815;51.100;6.516;2024-03-07T07:39:02;54.33;;;22.13;;
29958;SDS011;16815;51.100;6.516;2024-03-07T07:41:28;35.47;;;20.77;;
29958;SDS011;16815;51.100;6.516;2024-03-07T07:43:56;39.17;;;22.87;;
29958;SDS011;16815;51.100;6.516;2024-03-07T07:46:22;36.80;;;23.50;;
29958;SDS011;16815;51.100;6.516;2024-03-07T07:48:48;31.90;;;22.47;;
29958;SDS011;16815;51.100;6.516;2024-03-07T07:51:14;26.30;;;21.27;;
29958;SDS011;16815;51.100;6.516;2024-03-07T07:53:40;28.47;;;22.60;;
29958;SDS011;16815;51.100;6.516;2024-03-07T07:56:07;29.77;;;23.23;;
29958;SDS011;16815;51.100;6.516;2024-03-07T07:58:33;31.00;;;24.83;;
29958;SDS011;16815;51.100;6.516;2024-03-07T08:00:59;31.13;;;23.73;;
29958;SDS011;16815;51.100;6.516;2024-03-07T08:03:25;37.77;;;26.93;;
29958;SDS011;16815;51.100;6.516;2024-03-07T08:05:51;39.50;;;27.27;;
29958;SDS011;16815;51.100;6.516;2024-03-07T08:08:19;41.20;;;29.73;;
29958;SDS011;16815;51.100;6.516;2024-03-07T08:10:46;39.70;;;29.43;;
29958;SDS011;16815;51.100;6.516;2024-03-07T08:13:13;41.13;;;28.67;;
29958;SDS011;16815;51.100;6.516;2024-03-07T08:15:39;40.07;;;28.23;;
29958;SDS011;16815;51.100;6.516;2024-03-07T08:18:06;42.43;;;28.30;;
29958;SDS011;16815;51.100;6.516;2024-03-07T08:20:33;42.27;;;28.43;;
29958;SDS011;16815;51.100;6.516;2024-03-07T08:23:00;38.10;;;27.67;;
29958;SDS011;16815;51.100;6.516;2024-03-07T08:25:26;41.73;;;27.20;;
29958;SDS011;16815;51.100;6.516;2024-03-07T08:27:54;38.73;;;26.83;;
29958;SDS011;16815;51.100;6.516;2024-03-07T08:30:21;37.43;;;27.07;;
29958;SDS011;16815;51.100;6.516;2024-03-07T08:32:51;37.80;;;26.77;;
29958;SDS011;16815;51.100;6.516;2024-03-07T08:35:17;33.70;;;26.03;;
29958;SDS011;16815;51.100;6.516;2024-03-07T08:37:47;34.83;;;25.83;;
29958;SDS011;16815;51.100;6.516;2024-03-07T08:40:19;34.07;;;23.93;;
29958;SDS011;16815;51.100;6.516;2024-03-07T08:42:46;34.03;;;24.77;;
29958;SDS011;16815;51.100;6.516;2024-03-07T08:45:13;34.57;;;24.00;;
29958;SDS011;16815;51.100;6.516;2024-03-07T08:47:44;36.90;;;25.10;;
29958;SDS011;16815;51.100;6.516;2024-03-07T08:50:10;32.13;;;24.43;;
29958;SDS011;16815;51.100;6.516;2024-03-07T08:52:36;32.30;;;24.37;;
29958;SDS011;16815;51.100;6.516;2024-03-07T08:55:02;35.83;;;24.50;;
29958;SDS011;16815;51.100;6.516;2024-03-07T08:57:28;33.67;;;22.20;;
29958;SDS011;16815;51.100;6.516;2024-03-07T08:59:54;31.23;;;23.63;;
29958;SDS011;16815;51.100;6.516;2024-03-07T09:02:20;30.20;;;22.80;;
29958;SDS011;16815;51.100;6.516;2024-03-07T09:04:46;32.20;;;22.63;;
29958;SDS011;16815;51.100;6.516;2024-03-07T09:07:12;26.30;;;21.10;;
29958;SDS011;16815;51.100;6.516;2024-03-07T09:09:42;27.17;;;21.07;;
29958;SDS011;16815;51.100;6.516;2024-03-07T09:12:12;23.30;;;19.20;;
29958;SDS011;16815;51.100;6.516;2024-03-07T09:14:38;26.27;;;20.03;;
29958;SDS011;16815;51.100;6.516;2024-03-07T09:17:05;22.57;;;18.10;;
29958;SDS011;16815;51.100;6.516;2024-03-07T09:19:31;25.73;;;18.23;;
29958;SDS011;16815;51.100;6.516;2024-03-07T09:21:57;23.47;;;18.07;;
29958;SDS011;16815;51.100;6.516;2024-03-07T09:24:23;22.87;;;17.17;;
29958;SDS011;16815;51.100;6.516;2024-03-07T09:26:49;26.07;;;17.40;;
29958;SDS011;16815;51.100;6.516;2024-03-07T09:29:16;23.67;;;18.60;;
29958;SDS011;16815;51.100;6.516;2024-03-07T09:31:43;21.67;;;17.03;;
29958;SDS011;16815;51.100;6.516;2024-03-07T09:34:09;23.30;;;17.20;;
29958;SDS011;16815;51.100;6.516;2024-03-07T09:36:35;23.03;;;16.43;;
29958;SDS011;16815;51.100;6.516;2024-03-07T09:39:01;21.53;;;16.77;;
29958;SDS011;16815;51.100;6.516;2024-03-07T09:41:26;23.27;;;16.47;;
29958;SDS011;16815;51.100;6.516;2024-03-07T09:43:52;23.97;;;16.90;;
29958;SDS011;16815;51.100;6.516;2024-03-07T09:46:23;24.17;;;16.43;;
29958;SDS011;16815;51.100;6.516;2024-03-07T09:48:49;21.80;;;15.47;;
29958;SDS011;16815;51.100;6.516;2024-03-07T09:51:18;23.80;;;16.40;;
29958;SDS011;16815;51.100;6.516;2024-03-07T09:53:45;22.10;;;16.60;;
29958;SDS011;16815;51.100;6.516;2024-03-07T09:56:12;20.67;;;14.67;;
29958;SDS011;16815;51.100;6.516;2024-03-07T09:58:40;20.00;;;15.27;;
29958;SDS011;16815;51.100;6.516;2024-03-07T10:01:07;20.27;;;15.20;;
29958;SDS011;16815;51.100;6.516;2024-03-07T10:03:35;21.73;;;15.33;;
29958;SDS011;16815;51.100;6.516;2024-03-07T10:06:01;19.00;;;14.73;;
29958;SDS011;16815;51.100;6.516;2024-03-07T10:08:28;17.53;;;13.97;;
29958;SDS011;16815;51.100;6.516;2024-03-07T10:10:55;19.50;;;14.57;;
29958;SDS011;16815;51.100;6.516;2024-03-07T10:13:22;18.17;;;14.30;;
29958;SDS011;16815;51.100;6.516;2024-03-07T10:15:48;18.13;;;14.10;;
29958;SDS011;16815;51.100;6.516;2024-03-07T10:18:14;16.47;;;13.63;;
29958;SDS011;16815;51.100;6.516;2024-03-07T10:20:43;21.67;;;15.00;;
29958;SDS011;16815;51.100;6.516;2024-03-07T10:23:09;17.23;;;14.63;;
29958;SDS011;16815;51.100;6.516;2024-03-07T10:25:35;20.60;;;14.53;;
29958;SDS011;16815;51.100;6.516;2024-03-07T10:28:03;18.53;;;14.20;;
29958;SDS011;16815;51.100;6.516;2024-03-07T10:30:30;17.77;;;14.23;;
29958;SDS011;16815;51.100;6.516;2024-03-07T10:33:04;19.03;;;14.83;;
29958;SDS011;16815;51.100;6.516;2024-03-07T10:35:32;18.37;;;14.33;;
29958;SDS011;16815;51.100;6.516;2024-03-07T10:37:58;21.33;;;15.70;;
29958;SDS011;16815;51.100;6.516;2024-03-07T10:40:25;21.13;;;15.23;;
29958;SDS011;16815;51.100;6.516;2024-03-07T10:42:54;20.70;;;15.53;;
29958;SDS011;16815;51.100;6.516;2024-03-07T10:45:21;20.50;;;15.47;;
29958;SDS011;16815;51.100;6.516;2024-03-07T10:47:55;18.93;;;15.10;;
29958;SDS011;16815;51.100;6.516;2024-03-07T10:50:35;25.87;;;15.80;;
29958;SDS011;16815;51.100;6.516;2024-03-07T10:53:15;23.57;;;16.13;;
29958;SDS011;16815;51.100;6.516;2024-03-07T11:00:56;22.70;;;16.43;;
29958;SDS011;16815;51.100;6.516;2024-03-07T11:03:22;22.50;;;16.33;;
29958;SDS011;16815;51.100;6.516;2024-03-07T11:05:49;23.20;;;16.47;;
29958;SDS011;16815;51.100;6.516;2024-03-07T11:08:16;21.60;;;16.43;;
29958;SDS011;16815;51.100;6.516;2024-03-07T11:10:43;24.37;;;16.03;;
29958;SDS011;16815;51.100;6.516;2024-03-07T11:13:12;24.70;;;17.50;;
29958;SDS011;16815;51.100;6.516;2024-03-07T11:15:40;19.00;;;15.10;;
29958;SDS011;16815;51.100;6.516;2024-03-07T11:18:07;19.93;;;14.97;;
29958;SDS011;16815;51.100;6.516;2024-03-07T11:20:35;25.93;;;15.23;;
29958;SDS011;16815;51.100;6.516;2024-03-07T11:23:02;20.67;;;15.03;;
29958;SDS011;16815;51.100;6.516;2024-03-07T11:25:48;19.83;;;15.33;;
29958;SDS011;16815;51.100;6.516;2024-03-07T11:28:15;17.57;;;14.17;;
29958;SDS011;16815;51.100;6.516;2024-03-07T11:30:45;22.23;;;15.40;;
29958;SDS011;16815;51.100;6.516;2024-03-07T11:33:11;20.63;;;15.73;;
29958;SDS011;16815;51.100;6.516;2024-03-07T11:35:39;18.83;;;14.93;;
29958;SDS011;16815;51.100;6.516;2024-03-07T11:38:06;19.90;;;15.30;;
29958;SDS011;16815;51.100;6.516;2024-03-07T11:43:05;19.67;;;15.57;;
29958;SDS011;16815;51.100;6.516;2024-03-07T11:45:31;20.13;;;14.90;;
29958;SDS011;16815;51.100;6.516;2024-03-07T11:48:03;19.67;;;15.40;;
29958;SDS011;16815;51.100;6.516;2024-03-07T11:50:34;22.57;;;15.90;;
29958;SDS011;16815;51.100;6.516;2024-03-07T11:53:01;19.40;;;15.37;;
29958;SDS011;16815;51.100;6.516;2024-03-07T11:55:27;18.80;;;13.80;;
29958;SDS011;16815;51.100;6.516;2024-03-07T11:57:53;19.47;;;15.23;;
29958;SDS011;16815;51.100;6.516;2024-03-07T12:00:19;17.70;;;14.57;;
29958;SDS011;16815;51.100;6.516;2024-03-07T12:02:49;16.00;;;13.97;;
29958;SDS011;16815;51.100;6.516;2024-03-07T12:05:16;18.93;;;15.30;;
29958;SDS011;16815;51.100;6.516;2024-03-07T12:07:44;19.20;;;15.00;;
29958;SDS011;16815;51.100;6.516;2024-03-07T12:10:10;22.90;;;15.70;;
29958;SDS011;16815;51.100;6.516;2024-03-07T12:12:36;19.63;;;15.13;;
29958;SDS011;16815;51.100;6.516;2024-03-07T12:15:08;22.33;;;16.03;;
29958;SDS011;16815;51.100;6.516;2024-03-07T12:17:41;19.80;;;15.27;;
29958;SDS011;16815;51.100;6.516;2024-03-07T12:20:07;20.83;;;15.43;;
29958;SDS011;16815;51.100;6.516;2024-03-07T12:22:49;20.83;;;14.40;;
29958;SDS011;16815;51.100;6.516;2024-03-07T12:25:18;18.80;;;14.93;;
29958;SDS011;16815;51.100;6.516;2024-03-07T12:27:46;23.10;;;16.47;;
29958;SDS011;16815;51.100;6.516;2024-03-07T12:30:16;21.43;;;15.73;;
29958;SDS011;16815;51.100;6.516;2024-03-07T12:32:48;19.53;;;15.10;;
29958;SDS011;16815;51.100;6.516;2024-03-07T12:35:14;19.83;;;15.10;;
29958;SDS011;16815;51.100;6.516;2024-03-07T12:37:40;18.77;;;14.70;;
29958;SDS011;16815;51.100;6.516;2024-03-07T12:40:15;16.67;;;12.97;;
29958;SDS011;16815;51.100;6.516;2024-03-07T12:42:45;18.43;;;14.23;;
29958;SDS011;16815;51.100;6.516;2024-03-07T12:45:11;19.50;;;14.20;;
29958;SDS011;16815;51.100;6.516;2024-03-07T12:47:42;19.83;;;14.17;;
29958;SDS011;16815;51.100;6.516;2024-03-07T12:50:08;19.00;;;13.83;;
29958;SDS011;16815;51.100;6.516;2024-03-07T12:52:35;19.90;;;13.97;;
29958;SDS011;16815;51.100;6.516;2024-03-07T12:55:01;17.97;;;13.47;;
29958;SDS011;16815;51.100;6.516;2024-03-07T12:57:27;19.60;;;13.77;;
29958;SDS011;16815;51.100;6.516;2024-03-07T12:59:53;15.63;;;13.00;;
29958;SDS011;16815;51.100;6.516;2024-03-07T13:02:20;15.53;;;12.57;;
29958;SDS011;16815;51.100;6.516;2024-03-07T13:04:51;16.77;;;13.17;;
29958;SDS011;16815;51.100;6.516;2024-03-07T13:07:17;17.83;;;12.87;;
29958;SDS011;16815;51.100;6.516;2024-03-07T13:09:43;16.77;;;13.70;;
29958;SDS011;16815;51.100;6.516;2024-03-07T13:12:09;16.03;;;12.47;;
29958;SDS011;16815;51.100;6.516;2024-03-07T13:14:35;18.00;;;13.23;;
29958;SDS011;16815;51.100;6.516;2024-03-07T13:17:02;15.73;;;12.43;;
29958;SDS011;16815;51.100;6.516;2024-03-07T13:19:29;15.00;;;12.67;;
29958;SDS011;16815;51.100;6.516;2024-03-07T13:21:56;20.17;;;13.83;;
29958;SDS011;16815;51.100;6.516;2024-03-07T13:27:07;17.40;;;12.17;;
29958;SDS011;16815;51.100;6.516;2024-03-07T13:29:36;15.20;;;12.17;;
29958;SDS011;16815;51.100;6.516;2024-03-07T13:32:02;16.33;;;11.77;;
29958;SDS011;16815;51.100;6.516;2024-03-07T13:34:28;13.93;;;11.70;;
29958;SDS011;16815;51.100;6.516;2024-03-07T13:36:54;14.53;;;11.30;;
29958;SDS011;16815;51.100;6.516;2024-03-07T13:39:23;16.43;;;12.87;;
29958;SDS011;16815;51.100;6.516;2024-03-07T13:41:49;15.80;;;11.60;;
29958;SDS011;16815;51.100;6.516;2024-03-07T13:44:15;14.53;;;11.60;;
29958;SDS011;16815;51.100;6.516;2024-03-07T13:46:44;14.23;;;11.43;;
29958;SDS011;16815;51.100;6.516;2024-03-07T13:49:10;16.53;;;11.93;;
29958;SDS011;16815;51.100;6.516;2024-03-07T13:51:39;15.63;;;11.83;;
29958;SDS011;16815;51.100;6.516;2024-03-07T13:54:15;14.33;;;11.73;;
29958;SDS011;16815;51.100;6.516;2024-03-07T13:59:48;14.43;;;11.20;;
29958;SDS011;16815;51.100;6.516;2024-03-07T14:08:00;16.10;;;10.93;;
29958;SDS011;16815;51.100;6.516;2024-03-07T14:21:40;13.87;;;9.90;;
29958;SDS011;16815;51.100;6.516;2024-03-07T14:26:49;12.70;;;10.10;;
29958;SDS011;16815;51.100;6.516;2024-03-07T14:32:05;11.97;;;9.90;;
29958;SDS011;16815;51.100;6.516;2024-03-07T14:40:09;13.20;;;8.37;;
29958;SDS011;16815;51.100;6.516;2024-03-07T14:42:39;10.60;;;8.70;;
29958;SDS011;16815;51.100;6.516;2024-03-07T14:45:06;10.73;;;9.33;;
29958;SDS011;16815;51.100;6.516;2024-03-07T14:47:33;12.77;;;9.17;;
29958;SDS011;16815;51.100;6.516;2024-03-07T14:49:59;12.40;;;9.23;;
29958;SDS011;16815;51.100;6.516;2024-03-07T14:52:26;10.90;;;8.80;;
29958;SDS011;16815;51.100;6.516;2024-03-07T14:54:52;9.67;;;8.20;;
29958;SDS011;16815;51.100;6.516;2024-03-07T14:57:18;10.33;;;8.70;;
29958;SDS011;16815;51.100;6.516;2024-03-07T14:59:44;9.40;;;8.43;;
29958;SDS011;16815;51.100;6.516;2024-03-07T15:02:11;11.37;;;8.87;;